Sinclair, Maine
Current Conditions -  °F | °C
As of 11:53 AM on Thursday 27 Nov 2014 (Local Time) from KFVE Reporting Station
Light Snow Light Snow  
Wind Chill:   Ceiling: 1800
Heat Index: 22°   Visibility: 3mi
Dew Point: 17°   Wind: 14mph
Humidity: 82%   Direction: 350°N
Pressure: 29.82"   Gusts: 23mph
Location:  47.17°N, 68.27°W
Report Text: KFVE 271653Z AUTO 35012G20KT 3SM -SN BKN018 OVC022 M06/M08 A2982 RMK AO2 PK WND 34028/1636 UPE1554B38E39SNB39 SLP112 P0000 T10561083
Loading
Personal Weather Stations






























Interactive Weather Map New forecast layout! Learn more

10-Day Weather Forecast

Advertisements
Track Severe Weather on mobile